Ride Results

Brymaroo Endurance Ride (24-08-2008)
Ride distance: 80.0 km

Outcomes - Brymaroo Endurance Ride (24-08-2008)
Division No. of Entries Retired / DNE Completed Withdrawn Ineligible V/O Percentage Completed
HW 17 - 14 1 - 2 82.35%
MW 53 - 43 3 - 7 81.13%
LW 22 - 16 2 - 4 72.73%
JN 9 - 9 - - - 100.00%
Totals 101 - 82 6 - 13 81.19%
Results - Brymaroo Endurance Ride (24-08-2008)
No. Rider Horse Place Time Leg Speeds Total
Km/Hr
H/R bpm
Heavyweight
123 Niels Lochtenberg Matta Mia Safir 1 (BC) 4:23:00 18.3, 18.1 18.25 31, 43, 43 (Avg:43)
118 Jan Rohweder Warraba Haziel 2 4:54:00 19.4, 13.6 16.33 38, 49, 45 (Avg:47)
140 Roger Warner Hillbrae Kahalan 3 5:09:00 17.1, 13.9 15.53 33, 45, 40 (Avg:42)
103 Barry Thurlow Sahateyn Sahsha 4 5:45:00 14.7, 13.0 13.91 40, 44, 49 (Avg:46)
143 Edward (ted) Fitzgerald Deep Forest Contest 5 5:46:00 15.1, 12.5 13.87 38, 52, 48 (Avg:50)
237 Paul Lengronne Banjo Star 6 6:01:00 13.4, 13.0 13.30 39, 44, 52 (Avg:48)
204 Gregg Fields Cameo Caruzo 7 6:05:00 13.3, 12.9 13.15 32, 36, 40 (Avg:38)
240 Kristan Kershaw Bullarto Fiorelli 8 6:16:00 13.3, 12.1 12.77 38, 40, 47 (Avg:43)
210 Vern Berry Splitters Creek Watch the Tempo 9 6:44:00 12.2, 11.4 11.88 28, 43, 47 (Avg:45)
212 David Grove Aloha Delphic 10 7:10:00 12.3, 9.9 11.16 31, 48, 45 (Avg:46)
231 Jordan Dent Hirstglen Mack 11 7:13:00 10.8, 11.4 11.09 35, 42, 50 (Avg:46)
107 Vance Ratapu Bashan Malachi 12 7:14:00 12.3, 9.8 11.06 38, 38, 41 (Avg:39)
241 Mark Nimon Stratharlie Sheriff 13 7:20:00 12.4, 9.4 10.91 30, 45, 46 (Avg:45)
152 Peter Toft Tora Blar-Zay 14 7:49:00 10.5, 9.8 10.23 30, 38, 36 (Avg:37)
205 Dallas Blakely Hazeldean Shai Angel Lame L2 0:00:00 11.0, 9.9 - 40, 43, 45 (Avg:44)
224 Michael Combe Milgarra Dripptu Lame L2 0:00:00 12.7, 10.1 - 32, 44, 46 (Avg:45)
127 Selwyn Nix Shaydeetree Baci Withdrawn L1 0:00:00 - - 32, 32 (Avg:32)
Middleweight
158 Linda Meredith Anglesea Trooper 1 (BC) 3:56:00 20.9, 19.6 20.34 31, 41, 40 (Avg:40)
115 Stephen Gray Kasbah Kid 2 4:23:00 17.9, 18.6 18.25 38, 44, 56 (Avg:50)
116 Carolyn Strahan Ashraf Sparkling Panache 2 4:23:00 17.9, 18.6 18.25 30, 42, 53 (Avg:47)
142 Angela Head Dardanga Fingal 4 4:35:00 18.3, 16.4 17.45 34, 49, 46 (Avg:47)
141 Marion Lengronne Sasam 4 4:35:00 18.3, 16.4 17.45 32, 39, 44 (Avg:41)
120 Tarnia Kittel Splendacrest Dryad 6 4:54:00 18.2, 14.4 16.33 38, 48, 47 (Avg:47)
119 Cheryl Neal Domani 6 4:54:00 19.4, 13.6 16.33 28, 43, 38 (Avg:40)
110 Libby Nichols Meltharina Moosa 6 4:54:00 18.0, 14.5 16.33 35, 40, 43 (Avg:41)
136 Judy Battams El Rebel Stimulator 9 5:08:00 19.8, 12.3 15.58 38, 49, 55 (Avg:52)
132 Donna Brooker Hirstglen Louisville 9 5:08:00 17.5, 13.6 15.58 28, 50, 48 (Avg:49)
135 Carolyn Kent Nangamba Alisaar 9 5:08:00 19.8, 12.3 15.58 34, 45, 51 (Avg:48)
157 Penny Toft Don 9 5:08:00 15.5, 15.6 15.58 37, 40, 41 (Avg:40)
113 Janice Burt Roshar Talima 13 5:18:00 19.8, 11.6 15.09 36, 43, 40 (Avg:41)
102 Jillian Crowley Lilla 14 5:24:00 16.6, 13.0 14.81 33, 46, 46 (Avg:46)
138 Julie Kemp Al Baraq 15 5:32:00 17.4, 11.9 14.46 33, 41, 43 (Avg:42)
137 Peter Pike Dakila Renoasette 15 5:32:00 17.4, 11.9 14.46 35, 45, 44 (Avg:44)
128 Derryn Nix Dunbar El Maestro 17 5:34:00 13.7, 15.2 14.37 33, 41, 46 (Avg:43)
146 Robyn Pembroke Mt Eerwah Anastazia 18 5:45:00 16.2, 11.8 13.91 28, 39, 44 (Avg:41)
144 Dale Hargreaves Kai Hai Sterling Aaramis 19 5:46:00 15.1, 12.5 13.87 36, 44, 45 (Avg:44)
145 Ken Moir Johroy Custom Made 19 5:46:00 15.1, 12.5 13.87 31, 45, 43 (Avg:44)
219 Morgan Mantova Lanamere Romeo 21 6:15:00 13.3, 12.2 12.80 45, 41, 45 (Avg:43)
243 Ella Ormes Lichacz Coolong Park Shalima 21 6:15:00 17.5, 9.5 12.80 33, 50, 45 (Avg:47)
229 Camille Champagne-Bargenquast Brookleigh Junior 23 6:16:00 13.2, 12.2 12.77 33, 36, 44 (Avg:40)
228 Mark Tylee Aloha Millennium 23 6:16:00 13.2, 12.2 12.77 32, 36, 41 (Avg:38)
242 Sarah Monaghan Hillbrae Kazlad 25 6:25:00 13.1, 11.7 12.47 34, 41, 46 (Avg:43)
114 Wendy Smith Midu Jacelle 26 6:26:00 19.8, 8.5 12.44 32, 41, 40 (Avg:40)
230 Mark Grogan Aladdin 27 6:36:00 12.5, 11.6 12.12 36, 44, 49 (Avg:46)
13 Kimberley Ryan Bacchante Banjo 27 6:36:00 12.5, 11.6 12.12 30, 37, 43 (Avg:40)
214 Karen Weeden Matrix Maker 29 6:37:00 13.0, 11.1 12.09 38, 42, 44 (Avg:43)
221 Karen Marriott Jayay Illuminati 30 6:39:00 12.4, 11.5 12.03 39, 40, 52 (Avg:46)
218 Victor Slade Karbrook Romeo 30 6:39:00 12.4, 11.5 12.03 40, 46, 53 (Avg:49)
245 Raewyn Carter Maioro Nakita 32 6:44:00 12.2, 11.4 11.88 32, 41, 45 (Avg:43)
225 Kylie Reid Cherox Magnum 33 6:59:00 12.7, 10.1 11.46 27, 32, 38 (Avg:35)
226 Bruce Seaward Monterra Ibn Silver Magic 33 6:59:00 12.7, 10.1 11.46 31, 41, 40 (Avg:40)
201 Adrian Brickley Edenfels Magnum 35 7:06:00 11.5, 10.9 11.27 32, 40, 40 (Avg:40)
211 Ann Raabe Jaytee The Rebel 36 7:21:00 12.1, 9.6 10.88 30, 35, 39 (Avg:37)
207 Andrew Blakely Aloha Kyrie 37 7:36:00 11.0, 9.9 10.53 30, 45, 45 (Avg:45)
139 Olga Bartlett Cingala Royalle 38 7:43:00 9.9, 10.9 10.37 35, 45, 47 (Avg:46)
220 Rebecca Mitchell Flash 39 7:44:00 9.9, 10.8 10.34 37, 43, 46 (Avg:44)
148 Jo Hamilton-Branigan Aloha Kamahl 40 7:49:00 11.6, 8.8 10.23 29, 37, 39 (Avg:38)
151 Bridget Nottle Phantasm 40 7:49:00 11.6, 8.8 10.23 34, 39, 47 (Avg:43)
216 Warwick Toft Bremervale Katlyn 40 7:49:00 10.1, 10.2 10.23 34, 51, 53 (Avg:52)
109 Helen Toft Bremervale Bay Malibu 40 7:49:00 10.1, 10.2 10.23 32, 41, 44 (Avg:42)
235 Gerard Bou Country Gentleman Lame L2 0:00:00 13.4, 23.2 - 40, 48, 47 (Avg:47)
209 Tania Sanderson Dark Century Lame L2 0:00:00 12.1, 9.6 - 39, 40, 46 (Avg:43)
239 Sally Summers Harry Potter Lame L2 0:00:00 13.3, 12.5 - 37, 41, 49 (Avg:45)
117 Jan Tyrrell Fabio Lame L2 0:00:00 18.7, 16.6 - 32, 42, 45 (Avg:43)
238 Sue Bugden Ondeeki Withdrawn L1 0:00:00 - - 33, 35 (Avg:35)
155 Albie Knight Abbeywood Rumor Lame L1 0:00:00 16.6 - 34, 43 (Avg:43)
217 Justin Otto Count Lea Lame L1 0:00:00 13.4 - 36, 44 (Avg:44)
232 Vanessa Tiffen Hirstglen Sahara Withdrawn L1 0:00:00 - - 35, 39 (Avg:39)
124 Simone Krahnen Kalkadoon Zorro Lame P/R 0:00:00 - - 41
108 Ouida Ratapu Jessie Withdrawn P/R 0:00:00 - - 30
Lightweight
104 Clare Fleming Mangueira Moksha 1 (BC) 4:12:00 20.9, 17.1 19.05 30, 43, 40 (Avg:41)
131 Karen Winkel Tonique 2 4:36:00 19.4, 15.4 17.39 39, 48, 49 (Avg:48)
122 Christine Christie Duke 3 5:35:00 19.4, 10.8 14.33 41, 55, 54 (Avg:54)
147 Chelsea Moore Mt Eerwah Silverado 4 5:45:00 16.2, 11.8 13.91 27, 41, 38 (Avg:39)
208 Kym Dyball Anniversary Wish 5 6:00:00 13.5, 13.0 13.33 36, 42, 45 (Avg:43)
203 Karen Fields Duwurri Midnite Magic 6 6:05:00 13.3, 12.9 13.15 32, 42, 44 (Avg:43)
227 Saasha Grogan Brookleigh Callista 7 6:16:00 13.2, 12.2 12.77 42, 45, 46 (Avg:45)
126 Lesley Nancarrow Shah-Vale Shamal 7 6:16:00 13.2, 12.2 12.77 33, 43, 47 (Avg:45)
153 Riyo Noyori Belgari Bentley 7 6:16:00 13.3, 12.1 12.77 38, 42, 44 (Avg:43)
160 Maxine Leary Sunhaven Brooklyn 10 6:34:00 11.9, 12.4 12.18 32, 37, 39 (Avg:38)
159 Brooke Warner Magnum 10 6:34:00 11.9, 12.4 12.18 33, 36, 40 (Avg:38)
206 Sabrina Stephens Niora 12 6:35:00 13.1, 11.0 12.15 36, 42, 42 (Avg:42)
244 Sasha Laws-King Pender Brook Kedor 13 6:46:00 12.4, 11.1 11.82 39, 55, 50 (Avg:52)
222 Caroline Windle Milgarra Sinzano 14 6:59:00 12.7, 10.1 11.46 38, 44, 43 (Avg:43)
202 Chloe Lyons Sahala Azure Rose 15 7:06:00 11.5, 10.9 11.27 33, 38, 39 (Avg:38)
234 Elke Zischke Glenewan Sprite 16 7:22:00 10.5, 11.2 10.86 33, 40, 45 (Avg:42)
105 Bridget Campbell Cameo Kinshaza Withdrawn L2 0:00:00 - - 39, 43, 42 (Avg:42)
236 Sean Crew Linslea Park Sir Lancelot Lame L2 0:00:00 13.1, 10.9 - 38, 46, 49 (Avg:47)
129 Kaylea Maher Leopard Lame L2 0:00:00 19.8, 17.7 - 32, 44, 44 (Avg:44)
149 Della Weier Kahshah Lame L2 0:00:00 13.3, 11.2 - 32, 37, 43 (Avg:40)
154 Renae Kuhn Lilonda Count Richael Lame L1 0:00:00 13.3 - 37, 48 (Avg:48)
150 Amanda Powell Summit Park Raz Withdrawn L1 0:00:00 - - 32, 42 (Avg:42)
Junior
112 David Anderson Jnr Ashwind 1 (BC) 3:58:00 20.9, 19.2 20.17 32, 43, 41 (Avg:42)
125 Erin Krahnen Rodborough Bey Abdul 2 4:31:00 19.8, 15.6 17.71 30, 43, 38 (Avg:40)
121 Ingrid Ambrosiussen Shaah 3 4:54:00 18.2, 14.4 16.33 33, 40, 37 (Avg:38)
134 Jamie Green Hirstglen Maybe 4 5:08:00 17.5, 13.6 15.58 32, 49, 45 (Avg:47)
213 Joe Grove Jerry Jeremiah 5 7:10:00 12.3, 9.9 11.16 32, 43, 42 (Avg:42)
233 Lainie Zischke Larabi Rummanni 6 7:22:00 10.5, 11.2 10.86 34, 41, 46 (Avg:43)
106 Georgia Toft Malricia Bern 7 7:49:00 10.5, 9.8 10.23 38, 43, 42 (Avg:42)
156 Alexandra Toft Bramall Jazzmin 7 7:49:00 10.5, 9.8 10.23 30, 40, 36 (Avg:38)
215 Madeline Toft Bremervale Arrogance 7 7:49:00 10.1, 10.2 10.23 36, 52, 55 (Avg:53)